Aviation Digital Data Service (ADDS)

Output produced by TAFs form (1952 UTC 28 April 2017)
found at http://aviationweather.gov/adds/tafs/
 
KCNM 281800Z 2818/2918 26018G28KT P6SM BKN250 
     FM290500 31012KT P6SM BKN200